Time;durP1;ratioP1;P1;durP2;ratioP2;P2;SDS_P1;SDS_P2;PMS_P1;PMS_P2;Temp;Humidity;BMP_temperature;BMP_pressure;BME280_temperature;BME280_humidity;BME280_pressure;Samples;Min_cycle;Max_cycle;Signal;HPM_P1;HPM_P2
2024/02/19 00:02:49;;;;;;;5.17;4.67;;;8.30;99.90;;;8.80;100.00;98819.31;10303143;28;20778;-67
2024/02/19 00:07:52;;;;;;;5.57;5.07;;;8.30;99.90;;;8.82;100.00;98819.44;10301000;28;20238;-67
2024/02/19 00:12:56;;;;;;;5.33;4.93;;;8.30;99.90;;;8.94;100.00;98822.94;10301694;28;20296;-68
2024/02/19 00:18:00;;;;;;;5.17;4.63;;;8.30;99.90;;;8.74;100.00;98823.03;10303683;28;20258;-68
2024/02/19 00:23:04;;;;;;;4.33;4.03;;;8.30;99.90;;;8.86;100.00;98826.56;10303058;28;20680;-68
2024/02/19 00:28:09;;;;;;;4.80;4.40;;;8.30;99.90;;;8.80;100.00;98834.59;10302956;28;20235;-67
2024/02/19 00:33:14;;;;;;;4.50;4.20;;;8.30;99.90;;;8.83;100.00;98816.13;10303007;28;20227;-67
2024/02/19 00:38:18;;;;;;;4.30;4.00;;;8.30;99.90;;;8.93;100.00;98818.63;10300748;28;20235;-67
2024/02/19 00:43:22;;;;;;;5.07;4.68;;;8.40;99.90;;;8.89;100.00;98820.81;10301251;28;20719;-67
2024/02/19 00:48:26;;;;;;;4.30;4.00;;;8.40;99.90;;;8.87;100.00;98818.16;10301748;28;20235;-67
2024/02/19 00:53:29;;;;;;;4.38;4.07;;;8.40;99.90;;;8.85;100.00;98821.34;10302349;28;20227;-67
2024/02/19 00:58:33;;;;;;;3.42;3.13;;;8.40;99.90;;;8.93;100.00;98828.84;10301614;28;20613;-67
2024/02/19 01:03:37;;;;;;;3.97;3.58;;;8.40;99.90;;;8.95;100.00;98831.50;10339116;22;20231;-66
2024/02/19 01:08:40;;;;;;;3.75;3.45;;;8.40;99.90;;;9.07;100.00;98823.91;10340443;28;20233;-65
2024/02/19 01:13:44;;;;;;;3.75;3.45;;;8.40;99.90;;;9.01;100.00;98812.47;10312514;28;20246;-66
2024/02/19 01:18:48;;;;;;;3.30;3.00;;;8.40;99.90;;;9.15;100.00;98815.19;10306354;28;20245;-66
2024/02/19 01:23:51;;;;;;;3.10;2.90;;;8.40;99.90;;;9.11;100.00;98813.19;10304186;28;20723;-66
2024/02/19 01:28:55;;;;;;;2.83;2.63;;;8.40;99.90;;;8.99;100.00;98818.22;10303657;28;20234;-67
2024/02/19 01:33:59;;;;;;;2.73;2.50;;;8.40;99.90;;;8.97;100.00;98804.47;10306535;28;20231;-66
2024/02/19 01:39:03;;;;;;;2.65;2.45;;;8.40;99.90;;;9.03;100.00;98805.81;10306005;28;20239;-66
2024/02/19 01:44:07;;;;;;;2.60;2.40;;;8.40;99.90;;;8.97;100.00;98813.00;10307318;28;20242;-66
2024/02/19 01:49:13;;;;;;;2.90;2.70;;;8.40;99.90;;;9.00;100.00;98812.34;10306651;28;20243;-66
2024/02/19 01:54:17;;;;;;;2.33;2.23;;;8.40;99.90;;;8.97;100.00;98810.44;10305543;28;20234;-66
2024/02/19 01:59:23;;;;;;;2.28;2.17;;;8.40;99.90;;;9.07;100.00;98814.63;10303577;28;20234;-66
2024/02/19 02:04:29;;;;;;;2.40;2.30;;;8.40;99.90;;;9.02;100.00;98826.13;10305322;28;20235;-66
2024/02/19 02:09:33;;;;;;;2.53;2.35;;;8.40;99.90;;;9.09;100.00;98815.63;10305104;28;20231;-66
2024/02/19 02:14:36;;;;;;;2.40;2.30;;;8.40;99.90;;;8.97;100.00;98810.44;10301970;28;20230;-67
2024/02/19 02:19:41;;;;;;;2.40;2.30;;;8.40;99.90;;;8.94;100.00;98812.75;10304297;28;20253;-66
2024/02/19 02:24:44;;;;;;;2.23;2.03;;;8.40;99.90;;;8.97;100.00;98820.66;10306262;28;20613;-67
2024/02/19 02:29:49;;;;;;;2.25;2.10;;;8.50;99.90;;;8.91;100.00;98820.16;10303984;28;20227;-66
2024/02/19 02:34:52;;;;;;;2.65;2.55;;;8.40;99.90;;;8.98;100.00;98819.88;10300727;28;20231;-66
2024/02/19 02:39:55;;;;;;;2.63;2.42;;;8.40;99.90;;;9.09;100.00;98807.06;10302141;28;20733;-67
2024/02/19 02:45:00;;;;;;;2.20;1.90;;;8.50;99.90;;;9.10;100.00;98812.31;10299078;28;20238;-66
2024/02/19 02:50:04;;;;;;;1.80;1.70;;;8.50;99.90;;;9.06;100.00;98809.38;10303748;28;20238;-66
2024/02/19 02:55:08;;;;;;;2.03;1.92;;;8.50;99.90;;;9.12;100.00;98812.41;10303291;28;20239;-67
2024/02/19 03:00:14;;;;;;;2.65;2.47;;;8.50;99.90;;;9.02;100.00;98814.25;10303742;28;20241;-66
2024/02/19 03:05:17;;;;;;;2.77;2.03;;;8.50;99.90;;;9.00;100.00;98813.22;10301991;28;20234;-67
2024/02/19 03:10:20;;;;;;;2.43;2.23;;;8.40;99.90;;;9.09;100.00;98814.72;10300497;28;20224;-67
2024/02/19 03:15:25;;;;;;;2.55;1.90;;;8.50;99.90;;;8.96;100.00;98825.63;10301192;28;20643;-67
2024/02/19 03:20:28;;;;;;;1.90;1.80;;;8.40;99.90;;;9.01;100.00;98817.59;10301325;28;20405;-67
2024/02/19 03:25:32;;;;;;;2.13;2.03;;;8.50;99.90;;;9.01;100.00;98812.47;10303386;28;20239;-67
2024/02/19 03:30:36;;;;;;;2.00;1.90;;;8.50;99.90;;;9.08;100.00;98818.06;10298459;28;20219;-67
2024/02/19 03:35:39;;;;;;;2.13;2.03;;;8.50;99.90;;;8.98;100.00;98817.31;10300022;28;20263;-67
2024/02/19 03:40:43;;;;;;;1.90;1.80;;;8.50;99.90;;;9.01;100.00;98825.22;10300019;28;20605;-67
2024/02/19 03:45:50;;;;;;;2.13;2.03;;;8.50;99.90;;;9.06;100.00;98832.34;10300949;28;20231;-67
2024/02/19 03:50:53;;;;;;;2.53;2.07;;;8.50;99.90;;;9.09;100.00;98836.00;10299502;28;20211;-67
2024/02/19 03:55:58;;;;;;;2.23;1.87;;;8.60;99.90;;;9.08;100.00;98825.72;10301862;28;20613;-67
2024/02/19 04:01:02;;;;;;;2.70;2.33;;;8.60;99.90;;;9.11;100.00;98838.69;10300663;28;20234;-67
2024/02/19 04:06:10;;;;;;;2.72;2.28;;;8.60;99.90;;;9.13;100.00;98847.34;10300948;28;20712;-66
2024/02/19 04:11:16;;;;;;;2.20;2.10;;;8.60;99.90;;;9.09;100.00;98845.31;10300872;28;20238;-67
2024/02/19 04:16:20;;;;;;;2.65;2.45;;;8.50;99.90;;;9.21;100.00;98866.69;10300408;28;20226;-67
2024/02/19 04:21:24;;;;;;;2.60;2.40;;;8.60;99.90;;;9.27;100.00;98859.53;10301668;28;20270;-67
2024/02/19 04:26:27;;;;;;;3.00;2.80;;;8.60;99.90;;;9.25;100.00;98856.84;10301906;28;20234;-67
2024/02/19 04:31:32;;;;;;;3.15;2.88;;;8.60;99.90;;;9.38;100.00;98856.13;10299639;28;20227;-68
2024/02/19 04:36:35;;;;;;;3.70;3.50;;;8.70;99.90;;;9.27;100.00;98862.09;10299040;28;20231;-68
2024/02/19 04:41:38;;;;;;;4.57;4.03;;;8.70;99.90;;;9.26;100.00;98850.09;10298494;28;20234;-68
2024/02/19 04:53:08;;;;;;;5.35;3.95;;;8.70;99.90;;;9.34;100.00;98823.50;10281269;28;20277;-67
2024/02/19 04:58:16;;;;;;;4.32;3.92;;;8.70;99.90;;;9.26;100.00;98839.88;10289332;28;20241;-67
2024/02/19 05:03:19;;;;;;;4.97;4.30;;;8.70;99.90;;;9.23;100.00;98829.44;10293380;28;20250;-67
2024/02/19 05:08:24;;;;;;;4.50;4.10;;;8.70;99.90;;;9.52;100.00;98828.25;10284014;28;20231;-67
2024/02/19 05:13:27;;;;;;;5.10;4.60;;;8.70;99.90;;;9.39;100.00;98847.72;10280399;28;20234;-68
2024/02/19 05:18:30;;;;;;;5.00;4.50;;;8.70;99.90;;;9.29;100.00;98845.22;10277768;28;20238;-67
2024/02/19 05:23:35;;;;;;;4.93;4.50;;;8.70;99.90;;;9.29;100.00;98845.22;10280781;28;20726;-67
2024/02/19 05:28:38;;;;;;;5.30;4.80;;;8.70;99.90;;;9.40;100.00;98854.59;10283046;28;20227;-67
2024/02/19 05:33:41;;;;;;;5.10;4.70;;;8.70;99.90;;;9.38;100.00;98860.34;10283139;28;20235;-67
2024/02/19 05:38:46;;;;;;;5.45;4.90;;;8.80;99.90;;;9.44;100.00;98871.03;10287676;28;20607;-67
2024/02/19 05:43:49;;;;;;;6.15;4.72;;;8.80;99.90;;;9.45;100.00;98878.81;10278765;28;20235;-66
2024/02/19 05:48:52;;;;;;;6.28;4.93;;;8.80;99.90;;;9.57;100.00;98886.53;10278305;28;20830;-66
2024/02/19 05:53:57;;;;;;;6.53;5.13;;;8.90;99.90;;;9.40;100.00;98889.44;10301134;28;20263;-66
2024/02/19 05:59:01;;;;;;;5.78;4.88;;;8.80;99.90;;;9.29;100.00;98890.25;10306057;28;20602;-66
2024/02/19 06:04:04;;;;;;;6.30;5.70;;;8.70;99.90;;;9.30;100.00;98897.13;10312144;28;20282;-67
2024/02/19 06:09:09;;;;;;;6.75;5.20;;;8.70;99.90;;;9.41;100.00;98907.44;10313345;28;20269;-66
2024/02/19 06:14:12;;;;;;;5.57;5.07;;;8.70;99.90;;;9.41;100.00;98912.53;10315484;28;20254;-65
2024/02/19 06:19:16;;;;;;;5.63;5.03;;;8.70;99.90;;;9.27;100.00;98914.75;10317959;28;20223;-65
2024/02/19 06:24:21;;;;;;;5.22;4.72;;;8.60;99.90;;;9.17;100.00;98925.88;10318280;28;20277;-66
2024/02/19 06:29:24;;;;;;;5.65;4.75;;;8.60;99.90;;;9.22;100.00;98930.59;10314716;28;20247;-66
2024/02/19 06:34:28;;;;;;;6.97;5.40;;;8.60;99.90;;;9.18;100.00;98937.88;10308948;28;20733;-66
2024/02/19 06:39:33;;;;;;;7.68;5.85;;;8.50;99.90;;;9.15;100.00;98938.50;10316946;28;20617;-65
2024/02/19 06:44:36;;;;;;;5.95;5.40;;;8.60;99.90;;;9.16;100.00;98934.31;10313453;28;20230;-65
2024/02/19 06:49:39;;;;;;;7.50;5.28;;;8.60;99.90;;;9.09;100.00;98939.69;10317580;28;20230;-65
2024/02/19 06:54:43;;;;;;;6.73;4.83;;;8.50;99.90;;;9.09;100.00;98935.47;10317132;28;20231;-65
2024/02/19 06:59:48;;;;;;;6.57;5.43;;;8.50;99.90;;;9.10;100.00;98934.72;10318042;28;20324;-66
2024/02/19 07:04:51;;;;;;;6.25;4.68;;;8.50;99.90;;;9.07;100.00;98938.66;10313427;28;20231;-66
2024/02/19 07:09:56;;;;;;;6.93;5.00;;;8.40;99.90;;;9.06;100.00;98952.19;10317495;28;20647;-66
2024/02/19 07:14:59;;;;;;;5.10;4.60;;;8.40;99.90;;;9.07;100.00;98954.88;10313164;28;20238;-66
2024/02/19 07:20:03;;;;;;;6.53;4.47;;;8.40;99.90;;;9.13;100.00;98973.22;10313501;28;20625;-66
2024/02/19 07:25:08;;;;;;;4.47;3.95;;;8.40;99.90;;;9.07;100.00;98976.91;10312311;28;20358;-65
2024/02/19 07:30:23;;;;;;;5.95;3.80;;;8.40;99.90;;;9.02;100.00;98981.66;10312028;28;20363;-65
2024/02/19 07:35:26;;;;;;;4.78;4.10;;;8.40;99.90;;;9.08;100.00;98981.28;10310857;28;20608;-65
2024/02/19 07:40:31;;;;;;;4.40;3.92;;;8.50;99.90;;;9.15;100.00;98983.53;10311835;28;20327;-64
2024/02/19 07:45:37;;;;;;;3.58;3.30;;;8.50;99.90;;;9.23;100.00;98991.03;10315038;28;20235;-65
2024/02/19 07:50:41;;;;;;;6.10;5.55;;;8.60;99.90;;;9.17;100.00;99002.41;10316716;28;20223;-64
2024/02/19 07:55:46;;;;;;;4.63;3.95;;;8.60;99.90;;;9.32;100.00;99005.31;10315482;28;21232;-65
2024/02/19 08:00:50;;;;;;;5.97;4.13;;;8.70;99.90;;;9.39;100.00;99015.25;10314824;28;20233;-65
2024/02/19 08:05:54;;;;;;;5.72;4.18;;;8.80;99.90;;;9.46;100.00;99023.50;10314559;28;20235;-65
2024/02/19 08:10:59;;;;;;;4.93;4.43;;;8.80;99.90;;;9.46;100.00;99023.50;10315054;28;20285;-64
2024/02/19 08:16:02;;;;;;;7.15;4.63;;;8.80;99.90;;;9.56;100.00;99035.34;10316182;28;20250;-64
2024/02/19 08:21:06;;;;;;;5.60;4.22;;;8.80;99.90;;;9.59;100.00;99038.16;10314748;28;21572;-65
2024/02/19 08:26:10;;;;;;;5.10;4.35;;;8.90;99.90;;;9.64;100.00;99048.69;10316812;28;20314;-64
2024/02/19 08:31:14;;;;;;;4.25;3.85;;;8.90;99.90;;;9.53;100.00;99054.59;10322815;28;20227;-65
2024/02/19 08:36:17;;;;;;;6.60;4.68;;;8.90;99.90;;;9.64;100.00;99053.81;10322411;28;20222;-65
2024/02/19 08:41:22;;;;;;;3.70;2.67;;;9.00;99.90;;;9.57;100.00;99062.66;10321284;28;20374;-64
2024/02/19 08:46:25;;;;;;;3.72;2.90;;;8.90;99.90;;;9.63;100.00;99067.34;10320866;28;20226;-65
2024/02/19 08:51:29;;;;;;;3.20;2.90;;;8.90;99.90;;;9.67;100.00;99069.38;10323439;28;20235;-65
2024/02/19 08:56:33;;;;;;;5.55;4.32;;;8.90;99.90;;;9.47;100.00;99072.88;10321096;28;20233;-65
2024/02/19 09:01:37;;;;;;;3.70;2.80;;;8.80;99.90;;;9.48;100.00;99085.75;10320425;28;20608;-65
2024/02/19 09:06:40;;;;;;;2.80;2.50;;;8.80;99.90;;;9.27;100.00;99084.03;10321345;28;20711;-65
2024/02/19 09:11:45;;;;;;;5.13;2.92;;;8.60;99.90;;;9.41;100.00;99090.22;10321534;28;20348;-64
2024/02/19 09:16:49;;;;;;;5.40;3.10;;;8.80;99.90;;;9.63;100.00;99085.22;10320266;28;20231;-65
2024/02/19 09:21:52;;;;;;;3.78;2.60;;;8.80;99.90;;;9.48;100.00;99100.19;10321644;28;20245;-65
2024/02/19 09:26:57;;;;;;;4.47;3.40;;;8.80;99.90;;;9.68;100.00;99097.59;10320914;28;20227;-65
2024/02/19 09:32:00;;;;;;;3.38;2.53;;;8.90;99.90;;;9.46;100.00;99105.16;10319885;28;20791;-65
2024/02/19 09:37:03;;;;;;;4.60;3.15;;;8.70;99.90;;;9.60;100.00;99113.06;10319096;28;20230;-65
2024/02/19 09:42:09;;;;;;;5.20;2.92;;;8.90;99.90;;;9.59;100.00;99108.72;10318939;28;20232;-65
2024/02/19 09:47:20;;;;;;;3.92;2.30;;;8.80;99.90;;;9.52;100.00;99114.09;10316769;28;20345;-65
2024/02/19 09:52:25;;;;;;;3.22;2.92;;;8.90;99.90;;;9.56;100.00;99113.59;10317291;28;20242;-65
2024/02/19 09:57:33;;;;;;;3.55;2.63;;;8.90;99.90;;;9.69;100.00;99113.78;10317895;28;20227;-64
2024/02/19 10:02:38;;;;;;;2.75;2.30;;;9.10;99.90;;;9.78;100.00;99117.06;10317745;28;20799;-65
2024/02/19 10:07:41;;;;;;;3.95;2.80;;;9.10;99.90;;;9.98;100.00;99117.78;10318174;28;20577;-65
2024/02/19 10:12:46;;;;;;;2.70;2.42;;;9.30;99.90;;;9.80;100.00;99128.31;10356821;22;20317;-67
2024/02/19 10:17:49;;;;;;;3.15;2.50;;;9.10;99.90;;;9.98;100.00;99126.31;10388721;28;20667;-68
2024/02/19 10:22:53;;;;;;;4.03;2.55;;;9.30;99.90;;;10.07;100.00;99128.72;10384260;28;20256;-66
2024/02/19 10:27:58;;;;;;;3.67;2.60;;;9.40;99.90;;;10.21;100.00;99130.69;10388153;28;20230;-68
2024/02/19 10:33:02;;;;;;;2.70;2.50;;;9.40;99.90;;;10.28;100.00;99140.69;10395374;28;20255;-68
2024/02/19 10:38:05;;;;;;;3.80;2.90;;;9.60;99.90;;;10.58;100.00;99133.63;10397888;28;20627;-68
2024/02/19 10:43:12;;;;;;;3.47;2.45;;;9.80;99.90;;;10.57;99.85;99136.97;10386791;28;20591;-68
2024/02/19 10:48:15;;;;;;;3.97;2.63;;;9.90;99.90;;;10.91;95.42;99134.44;10386681;28;20582;-67
2024/02/19 10:53:19;;;;;;;4.72;2.90;;;10.10;99.90;;;10.89;94.69;99138.53;10394390;28;20312;-71
2024/02/19 10:58:27;;;;;;;5.30;2.40;;;10.10;99.90;;;10.80;94.11;99133.63;10384548;28;20236;-67
2024/02/19 11:03:32;;;;;;;4.03;2.38;;;10.10;99.90;;;10.72;94.08;99138.13;10390952;28;20233;-68
2024/02/19 11:08:36;;;;;;;4.82;2.33;;;9.90;99.90;;;10.66;93.43;99135.09;10398946;28;20256;-67
2024/02/19 11:13:41;;;;;;;2.45;2.20;;;9.80;99.90;;;10.38;93.57;99122.72;10397983;28;20807;-68
2024/02/19 11:18:44;;;;;;;4.60;2.88;;;9.60;99.90;;;10.19;91.63;99121.13;10388494;28;20360;-67
2024/02/19 11:23:47;;;;;;;4.35;2.40;;;9.40;99.90;;;10.37;93.58;99114.97;10394745;28;20600;-67
2024/02/19 11:28:56;;;;;;;4.82;2.70;;;9.40;99.90;;;10.20;95.09;99116.16;10399336;28;20225;-67
2024/02/19 11:33:59;;;;;;;3.05;2.63;;;9.40;99.90;;;9.84;91.99;99116.66;10396403;28;20607;-67
2024/02/19 11:39:03;;;;;;;5.20;2.70;;;9.20;99.90;;;9.63;94.53;99113.28;10394284;28;20218;-67
2024/02/19 11:44:09;;;;;;;3.13;2.60;;;9.00;99.90;;;9.54;98.25;99107.44;10397011;28;20710;-67
2024/02/19 11:49:14;;;;;;;6.10;3.45;;;8.80;99.90;;;9.56;99.67;99100.81;10395727;28;20236;-67
2024/02/19 11:54:17;;;;;;;5.03;2.78;;;8.90;99.90;;;9.69;96.71;99098.47;10391719;28;20234;-67
2024/02/19 11:59:22;;;;;;;4.60;2.92;;;9.00;99.90;;;9.70;97.70;99087.50;10391974;28;20305;-67
2024/02/19 12:04:26;;;;;;;6.80;3.17;;;9.10;99.90;;;9.96;98.16;99069.16;10380250;28;20225;-66
2024/02/19 12:09:29;;;;;;;5.13;2.30;;;9.20;99.90;;;10.49;91.95;99063.91;10397538;28;20233;-67
2024/02/19 12:14:36;;;;;;;4.50;2.58;;;9.50;99.90;;;10.89;91.26;99051.56;10394481;28;20275;-67
2024/02/19 12:19:39;;;;;;;3.15;1.98;;;10.00;99.90;;;11.04;86.32;99052.72;10398910;28;20349;-65
2024/02/19 12:24:42;;;;;;;3.65;2.42;;;10.20;99.90;;;11.15;86.29;99036.50;10395460;28;20233;-66
2024/02/19 12:29:47;;;;;;;2.53;2.33;;;10.30;99.90;;;11.18;82.78;99036.72;10391233;28;20252;-68
2024/02/19 12:34:50;;;;;;;4.25;2.28;;;10.30;99.90;;;10.82;82.66;99033.22;10389323;28;20253;-67
2024/02/19 12:39:54;;;;;;;5.30;2.33;;;9.90;99.90;;;10.67;82.88;99039.72;10391341;28;20233;-67
2024/02/19 12:44:58;;;;;;;3.60;2.10;;;9.80;99.90;;;10.53;84.04;99035.22;10399080;28;20218;-64
2024/02/19 12:50:02;;;;;;;4.10;2.92;;;9.70;99.90;;;10.48;85.46;99032.34;10392641;28;20313;-67
2024/02/19 12:55:06;;;;;;;3.88;2.33;;;9.70;99.90;;;10.50;84.56;99042.66;10393043;28;20225;-68
2024/02/19 13:00:13;;;;;;;2.67;1.77;;;9.70;99.90;;;10.46;84.85;99033.88;10395232;28;20225;-67
2024/02/19 13:05:16;;;;;;;3.90;2.20;;;9.70;99.90;;;10.61;85.11;99021.34;10393635;28;20238;-68
2024/02/19 13:10:20;;;;;;;3.30;2.00;;;9.80;99.90;;;10.79;85.82;99022.75;10386899;28;20241;-66
2024/02/19 13:15:25;;;;;;;3.58;2.10;;;9.90;99.90;;;10.93;84.28;99023.78;10395248;28;20234;-67
2024/02/19 13:20:28;;;;;;;2.55;2.30;;;10.00;99.90;;;11.17;79.87;99016.16;10399471;28;20231;-68
2024/02/19 13:25:31;;;;;;;3.28;2.20;;;10.20;99.90;;;11.13;80.54;99006.44;10404228;28;20303;-66
2024/02/19 13:30:36;;;;;;;3.90;1.70;;;10.30;99.90;;;11.32;79.92;99007.00;10402010;28;20222;-65
2024/02/19 13:35:39;;;;;;;1.73;1.60;;;10.40;99.90;;;11.37;77.21;98997.13;10401397;28;20726;-68
2024/02/19 13:40:43;;;;;;;4.95;2.25;;;10.50;99.90;;;11.59;74.74;99000.44;10389934;28;20246;-67
2024/02/19 13:45:59;;;;;;;1.80;1.70;;;10.90;99.90;;;11.57;76.48;98991.75;10396555;28;20257;-67
2024/02/19 13:51:03;;;;;;;3.78;1.95;;;10.70;99.90;;;11.42;77.12;98981.31;10401809;28;20220;-68
2024/02/19 13:56:06;;;;;;;2.63;2.30;;;10.70;99.90;;;11.56;74.35;98974.63;10399544;28;20225;-68
2024/02/19 14:01:11;;;;;;;4.18;2.83;;;10.50;99.90;;;11.50;75.39;98976.72;10399777;28;20267;-66
2024/02/19 14:06:15;;;;;;;4.55;1.90;;;10.50;99.90;;;11.48;74.88;98975.75;10394301;28;20747;-65
2024/02/19 14:11:18;;;;;;;2.20;2.00;;;10.60;99.90;;;11.39;75.56;98985.28;10394091;28;20660;-67
2024/02/19 14:16:23;;;;;;;2.65;1.90;;;10.50;99.90;;;11.42;74.70;98985.53;10388037;28;20735;-67
2024/02/19 14:21:26;;;;;;;2.95;1.90;;;10.50;99.90;;;11.44;74.29;98984.84;10393123;28;20961;-68
2024/02/19 14:26:29;;;;;;;4.35;1.85;;;10.50;99.90;;;11.25;75.87;98977.53;10396960;28;20231;-67
2024/02/19 14:31:34;;;;;;;2.22;1.80;;;10.30;99.90;;;11.03;76.34;98981.88;10403350;28;20236;-67
2024/02/19 14:36:38;;;;;;;3.92;2.10;;;10.20;99.90;;;11.05;77.94;98972.66;10395730;28;20250;-65
2024/02/19 14:41:41;;;;;;;4.57;2.30;;;10.20;99.90;;;10.95;77.76;98965.94;10401301;28;20237;-68
2024/02/19 14:46:45;;;;;;;5.32;2.67;;;10.20;99.90;;;10.95;77.98;98965.94;10388556;28;20233;-68
2024/02/19 14:51:59;;;;;;;3.20;2.67;;;10.20;99.90;;;11.01;78.58;98975.72;10385666;28;20229;-68
2024/02/19 14:57:04;;;;;;;5.32;2.95;;;10.10;99.90;;;10.90;80.01;98958.72;10396217;28;20227;-67
2024/02/19 15:02:09;;;;;;;5.57;3.47;;;10.10;99.90;;;10.83;80.85;98957.38;10394351;28;20237;-62
2024/02/19 15:07:13;;;;;;;5.85;3.10;;;10.00;99.90;;;10.79;81.94;98957.94;10387196;28;20493;-67
2024/02/19 15:12:16;;;;;;;2.70;2.42;;;10.00;99.90;;;10.79;81.23;98951.16;10392077;28;20229;-68
2024/02/19 15:17:21;;;;;;;3.20;2.70;;;10.00;99.90;;;10.77;81.39;98955.25;10388728;28;20398;-67
2024/02/19 15:22:25;;;;;;;5.18;2.65;;;9.90;99.90;;;10.73;81.45;98948.16;10389932;28;20229;-68
2024/02/19 15:27:28;;;;;;;2.90;2.30;;;9.90;99.90;;;10.81;78.59;98947.03;10405460;28;20260;-67
2024/02/19 15:32:32;;;;;;;5.18;2.50;;;9.90;99.90;;;10.77;79.94;98937.34;10389964;28;20265;-67
2024/02/19 15:37:36;;;;;;;3.90;2.28;;;9.90;99.90;;;10.66;82.03;98935.66;10399285;28;20605;-67
2024/02/19 15:42:39;;;;;;;4.30;2.58;;;9.90;99.90;;;10.56;85.68;98933.22;10393383;28;20225;-69
2024/02/19 15:47:43;;;;;;;4.38;2.53;;;9.80;99.90;;;10.53;87.39;98923.66;10386183;28;20337;-63
2024/02/19 15:52:47;;;;;;;4.88;3.08;;;9.90;99.90;;;10.43;88.64;98925.41;10390114;28;20234;-67
2024/02/19 15:58:03;;;;;;;4.15;3.00;;;9.70;99.90;;;10.27;90.85;98931.94;10387761;28;20603;-67
2024/02/19 16:03:08;;;;;;;4.30;3.20;;;9.70;99.90;;;10.05;92.04;98934.50;10392457;28;20253;-67
2024/02/19 16:08:38;;;;;;;5.53;3.53;;;9.50;99.90;;;9.90;95.16;98939.31;10387223;28;20235;-67
2024/02/19 16:13:43;;;;;;;3.92;3.55;;;9.40;99.90;;;9.81;96.75;98938.59;10392985;28;20244;-66
2024/02/19 16:18:48;;;;;;;5.75;3.70;;;9.30;99.90;;;9.74;100.00;98943.13;10382045;28;20369;-67
2024/02/19 16:23:51;;;;;;;7.25;6.55;;;9.20;99.90;;;9.64;100.00;98936.38;10377479;28;20234;-65
2024/02/19 16:28:55;;;;;;;7.85;6.82;;;9.20;99.90;;;9.55;100.00;98925.47;10382935;28;20649;-68
2024/02/19 16:33:59;;;;;;;8.43;6.85;;;9.00;99.90;;;9.47;100.00;98928.31;10389314;28;20233;-66
2024/02/19 16:39:03;;;;;;;7.40;6.10;;;9.00;99.90;;;9.41;100.00;98927.84;10392337;28;20545;-67
2024/02/19 16:44:06;;;;;;;9.25;6.40;;;8.90;99.90;;;9.35;100.00;98922.22;10382247;28;20371;-68
2024/02/19 16:49:11;;;;;;;20.50;17.38;;;8.90;99.90;;;9.34;100.00;98917.03;10390830;28;20238;-67
2024/02/19 16:54:17;;;;;;;12.45;10.93;;;8.80;99.90;;;9.29;100.00;98914.09;10393435;28;20249;-68
2024/02/19 16:59:21;;;;;;;9.88;8.80;;;8.80;99.90;;;9.06;100.00;98916.50;10393185;28;20733;-65
2024/02/19 17:04:25;;;;;;;8.32;7.15;;;8.60;99.90;;;9.08;100.00;98915.84;10407998;28;20770;-66
2024/02/19 17:09:29;;;;;;;5.45;4.95;;;8.60;99.90;;;9.05;100.00;98919.81;10404161;28;20297;-67
2024/02/19 17:14:32;;;;;;;5.82;4.35;;;8.60;99.90;;;8.96;100.00;98919.97;10401755;28;20222;-68
2024/02/19 17:19:36;;;;;;;6.50;3.92;;;8.50;99.90;;;8.96;100.00;98935.28;10412064;28;20225;-67
2024/02/19 17:24:41;;;;;;;6.15;3.85;;;8.50;99.90;;;8.95;100.00;98933.47;10401299;28;20615;-66
2024/02/19 17:29:45;;;;;;;5.53;3.90;;;8.40;99.90;;;8.97;100.00;98927.72;10397169;28;20254;-66
2024/02/19 17:34:51;;;;;;;6.13;3.92;;;8.40;99.90;;;8.88;100.00;98921.03;10394770;28;20226;-68
2024/02/19 17:39:57;;;;;;;6.88;4.20;;;8.40;99.90;;;8.87;100.00;98920.13;10397444;28;20798;-66
2024/02/19 17:45:01;;;;;;;6.47;4.15;;;8.30;99.90;;;8.87;100.00;98925.22;10393685;28;20233;-67
2024/02/19 17:50:07;;;;;;;6.72;5.78;;;8.30;99.90;;;8.90;100.00;98919.47;10389273;28;20827;-68
2024/02/19 17:55:10;;;;;;;10.13;7.75;;;8.40;99.90;;;8.86;100.00;98927.63;10388502;28;20246;-66
2024/02/19 18:00:15;;;;;;;9.60;6.35;;;8.30;99.90;;;8.82;100.00;98931.59;10383587;28;20236;-66
2024/02/19 18:05:19;;;;;;;6.75;5.78;;;8.20;99.90;;;8.82;100.00;98923.97;10385004;28;20233;-66
2024/02/19 18:10:22;;;;;;;7.18;5.82;;;8.30;99.90;;;8.83;100.00;98923.19;10382777;28;20272;-66
2024/02/19 18:15:26;;;;;;;8.68;6.40;;;8.30;99.90;;;8.83;100.00;98918.09;10387878;28;20245;-66
2024/02/19 18:20:32;;;;;;;6.78;6.25;;;8.30;99.90;;;8.87;100.00;98920.13;10383499;28;20210;-66
2024/02/19 18:25:36;;;;;;;8.75;5.78;;;8.20;99.90;;;8.66;100.00;98926.03;10387352;28;20277;-66
2024/02/19 18:30:39;;;;;;;7.83;5.33;;;8.10;99.90;;;8.60;100.00;98907.69;10383941;28;20709;-66
2024/02/19 18:35:45;;;;;;;9.00;7.67;;;8.10;99.90;;;8.68;100.00;98906.66;10383555;28;20226;-66
2024/02/19 18:40:49;;;;;;;11.05;9.80;;;8.10;99.90;;;8.73;100.00;98913.03;10381225;28;20308;-66
2024/02/19 18:45:52;;;;;;;12.13;9.73;;;8.20;99.90;;;8.69;100.00;98903.34;10382999;28;20229;-67
2024/02/19 18:50:58;;;;;;;10.90;9.38;;;8.10;99.90;;;8.70;100.00;98906.03;10385558;28;20367;-66
2024/02/19 18:56:02;;;;;;;11.23;9.52;;;8.10;99.90;;;8.62;100.00;98906.16;10386121;28;20244;-66
2024/02/19 19:01:05;;;;;;;11.57;9.05;;;8.00;99.90;;;8.69;100.00;98904.22;10379032;28;20230;-66
2024/02/19 19:06:10;;;;;;;7.57;6.93;;;8.10;99.90;;;8.68;100.00;98899.91;10380188;28;20233;-67
2024/02/19 19:11:13;;;;;;;7.45;6.55;;;8.10;99.90;;;8.68;100.00;98892.25;10382258;28;20260;-66
2024/02/19 19:16:16;;;;;;;8.38;6.80;;;8.10;99.90;;;8.71;100.00;98887.41;10382837;28;20225;-67
2024/02/19 19:21:21;;;;;;;10.52;8.38;;;8.10;99.90;;;8.62;100.00;98884.13;10385119;28;20249;-66
2024/02/19 19:26:24;;;;;;;9.47;7.57;;;8.10;99.90;;;8.66;100.00;98887.78;10383052;28;20257;-66
2024/02/19 19:31:27;;;;;;;10.60;9.55;;;8.10;99.90;;;8.78;100.00;98873.47;10386391;28;20253;-66
2024/02/19 19:36:32;;;;;;;17.02;11.93;;;8.20;99.90;;;8.76;100.00;98875.94;10381993;28;20229;-67
2024/02/19 19:41:35;;;;;;;11.15;10.15;;;8.20;99.90;;;8.77;100.00;98874.25;10385737;28;20238;-67
2024/02/19 19:46:39;;;;;;;9.27;8.40;;;8.20;99.90;;;8.74;100.00;98872.34;10379453;28;20599;-66
2024/02/19 19:51:44;;;;;;;11.15;8.27;;;8.10;99.90;;;8.77;100.00;98877.69;10380027;28;20241;-66
2024/02/19 19:56:47;;;;;;;9.70;8.27;;;8.20;99.90;;;8.65;100.00;98871.63;10382608;28;20222;-66
2024/02/19 20:01:50;;;;;;;8.85;7.22;;;8.10;99.90;;;8.71;100.00;98876.31;10386129;28;20244;-67
2024/02/19 20:06:56;;;;;;;8.47;7.27;;;8.20;99.90;;;8.73;100.00;98869.69;10383678;28;20233;-66
2024/02/19 20:11:59;;;;;;;9.15;8.07;;;8.20;99.90;;;8.64;100.00;98862.22;10383208;28;20653;-66
2024/02/19 20:17:03;;;;;;;8.43;7.55;;;8.10;99.90;;;8.60;100.00;98861.81;10383879;28;20348;-67
2024/02/19 20:22:10;;;;;;;12.55;10.80;;;8.00;99.90;;;8.57;100.00;98850.59;10385632;28;20236;-67
2024/02/19 20:27:13;;;;;;;11.95;10.75;;;8.10;99.90;;;8.53;100.00;98851.13;10395341;28;20229;-66
2024/02/19 20:32:19;;;;;;;13.93;9.73;;;8.00;99.90;;;8.55;100.00;98851.25;10394183;28;20717;-66
2024/02/19 20:37:24;;;;;;;10.60;9.18;;;8.10;99.90;;;8.62;100.00;98848.44;10391240;28;20665;-67
2024/02/19 20:42:32;;;;;;;9.13;8.07;;;8.10;99.90;;;8.61;100.00;98858.50;10391059;28;20721;-67
2024/02/19 20:47:39;;;;;;;9.38;8.40;;;8.10;99.90;;;8.60;100.00;98857.59;10395047;28;20233;-67
2024/02/19 20:52:49;;;;;;;9.47;8.03;;;8.10;99.90;;;8.65;100.00;98853.78;10400657;28;20334;-64
2024/02/19 20:57:54;;;;;;;10.60;9.52;;;8.10;99.90;;;8.62;100.00;98855.19;10395670;28;20221;-68
2024/02/19 21:02:57;;;;;;;11.27;8.30;;;8.10;99.90;;;8.62;100.00;98850.09;10390245;28;20226;-68
2024/02/19 21:08:04;;;;;;;9.37;8.27;;;8.00;99.90;;;8.60;100.00;98834.66;10399606;28;20238;-67
2024/02/19 21:13:08;;;;;;;9.63;7.67;;;8.10;99.90;;;8.53;100.00;98840.94;10392666;28;20585;-67
2024/02/19 21:18:14;;;;;;;11.73;8.07;;;7.90;99.90;;;8.55;100.00;98848.69;10395726;28;20229;-64
2024/02/19 21:23:23;;;;;;;9.60;7.63;;;8.00;99.90;;;8.56;100.00;98847.94;10384100;28;20233;-67